createdAt,value
2022-12-12T00:00:17.772Z,36.38
2022-12-12T00:01:25.122Z,34.40
2022-12-12T00:02:26.961Z,34.90
2022-12-12T00:03:29.744Z,38.80
2022-12-12T00:04:31.369Z,36.38
2022-12-12T00:05:33.939Z,45.45
2022-12-12T00:06:36.494Z,38.80
2022-12-12T00:07:38.064Z,34.42
2022-12-12T00:08:40.641Z,40.65
2022-12-12T00:09:42.158Z,34.97
2022-12-12T00:10:44.749Z,37.20
2022-12-12T00:11:46.293Z,39.75
2022-12-12T00:12:50.194Z,42.45
2022-12-12T00:13:52.891Z,34.92
2022-12-12T00:14:55.440Z,36.00
2022-12-12T00:15:57.036Z,41.30
2022-12-12T00:16:59.617Z,38.80
2022-12-12T00:18:01.131Z,36.50
2022-12-12T00:19:03.694Z,35.65
2022-12-12T00:20:06.113Z,36.22
2022-12-12T00:21:13.057Z,42.45
2022-12-12T00:22:14.749Z,37.90
2022-12-12T00:23:17.502Z,32.40
2022-12-12T00:24:20.082Z,36.05
2022-12-12T00:25:21.710Z,37.05
2022-12-12T00:26:26.680Z,34.80
2022-12-12T00:27:29.480Z,33.45
2022-12-12T00:28:32.897Z,34.40
2022-12-12T00:29:36.035Z,31.52
2022-12-12T00:30:37.647Z,36.97
2022-12-12T00:31:40.635Z,35.65
2022-12-12T00:32:42.152Z,33.63
2022-12-12T00:33:48.896Z,32.70
2022-12-12T00:34:52.345Z,29.85
2022-12-12T00:35:55.327Z,34.40
2022-12-12T00:36:57.928Z,36.25
2022-12-12T00:37:59.560Z,32.83
2022-12-12T00:39:02.225Z,32.20
2022-12-12T00:40:05.366Z,33.63
2022-12-12T00:41:08.170Z,29.30
2022-12-12T00:42:10.661Z,35.08
2022-12-12T00:43:12.242Z,35.30
2022-12-12T00:44:16.725Z,34.40
2022-12-12T00:45:18.328Z,33.92
2022-12-12T00:46:23.724Z,32.72
2022-12-12T00:47:25.502Z,36.13
2022-12-12T00:48:28.713Z,34.67
2022-12-12T00:49:31.527Z,33.05
2022-12-12T00:50:34.269Z,34.58
2022-12-12T00:51:45.297Z,40.60
2022-12-12T00:52:46.861Z,37.63
2022-12-12T00:53:50.227Z,35.92
2022-12-12T00:54:51.804Z,31.67
2022-12-12T00:55:57.770Z,34.08
2022-12-12T00:57:00.639Z,29.83
2022-12-12T00:58:02.215Z,33.70
2022-12-12T00:59:05.243Z,28.42
2022-12-12T01:00:13.349Z,35.72
2022-12-12T01:01:18.715Z,38.42
2022-12-12T01:02:26.412Z,33.10
2022-12-12T01:03:31.824Z,38.95
2022-12-12T01:04:34.331Z,33.78
2022-12-12T01:05:35.870Z,28.20
2022-12-12T01:06:38.449Z,35.83
2022-12-12T01:07:40.555Z,33.03
2022-12-12T01:08:43.202Z,37.33
2022-12-12T01:09:45.662Z,33.88
2022-12-12T01:10:47.726Z,30.67
2022-12-12T01:11:50.254Z,33.50
2022-12-12T01:12:51.804Z,32.17
2022-12-12T01:13:55.839Z,31.73
2022-12-12T01:14:57.442Z,28.50
2022-12-12T01:16:01.631Z,36.38
2022-12-12T01:17:04.459Z,34.15
2022-12-12T01:18:06.604Z,33.15
2022-12-12T01:19:09.288Z,28.52
2022-12-12T01:20:17.150Z,34.92
2022-12-12T01:21:21.039Z,35.78
2022-12-12T01:22:23.401Z,30.65
2022-12-12T01:23:26.071Z,35.00
2022-12-12T01:24:27.631Z,32.70
2022-12-12T01:25:30.243Z,36.15
2022-12-12T01:26:32.744Z,31.98
2022-12-12T01:27:34.448Z,30.25
2022-12-12T01:28:37.598Z,37.42
2022-12-12T01:29:39.140Z,37.95
2022-12-12T01:30:41.886Z,41.33
2022-12-12T01:31:44.819Z,35.97
2022-12-12T01:32:47.333Z,32.58
2022-12-12T01:33:48.908Z,31.45
2022-12-12T01:34:51.402Z,35.30
2022-12-12T01:35:53.014Z,43.55
2022-12-12T01:36:55.492Z,31.60
2022-12-12T01:37:57.147Z,35.72
2022-12-12T01:39:00.572Z,33.28
2022-12-12T01:40:07.806Z,32.13
2022-12-12T01:41:10.552Z,30.48
2022-12-12T01:42:14.575Z,30.88
2022-12-12T01:43:19.909Z,32.05
2022-12-12T01:44:42.221Z,28.25
2022-12-12T01:46:35.302Z,33.28
2022-12-12T01:47:40.109Z,35.70
2022-12-12T01:48:52.550Z,31.95
2022-12-12T01:49:59.700Z,34.95
2022-12-12T01:51:04.422Z,33.38
2022-12-12T01:52:12.087Z,31.33
2022-12-12T01:53:18.229Z,31.40
2022-12-12T01:54:25.123Z,34.88
2022-12-12T01:55:26.758Z,32.38
2022-12-12T01:56:30.783Z,32.53
2022-12-12T01:57:35.759Z,33.53
2022-12-12T01:58:38.624Z,33.75
2022-12-12T01:59:40.586Z,30.58
2022-12-12T02:00:43.687Z,32.33
2022-12-12T02:01:45.751Z,37.28
2022-12-12T02:02:49.810Z,36.42
2022-12-12T02:03:51.789Z,31.38
2022-12-12T02:04:54.463Z,32.65
2022-12-12T02:05:59.822Z,32.97
2022-12-12T02:07:02.858Z,31.25
2022-12-12T02:08:06.276Z,31.50
2022-12-12T02:09:11.030Z,35.20
2022-12-12T02:10:12.880Z,37.10
2022-12-12T02:11:15.393Z,30.42
2022-12-12T02:12:18.279Z,34.55
2022-12-12T02:13:23.609Z,32.67
2022-12-12T02:14:29.838Z,37.33
2022-12-12T02:15:38.439Z,37.00
2022-12-12T02:16:58.514Z,34.70
2022-12-12T02:18:12.518Z,37.03
2022-12-12T02:19:38.937Z,35.70
2022-12-12T02:20:55.069Z,34.83
2022-12-12T02:22:02.195Z,36.25
2022-12-12T02:23:45.023Z,30.33
2022-12-12T02:27:40.292Z,31.27
2022-12-12T02:29:04.692Z,37.63
2022-12-12T02:30:12.411Z,33.78
2022-12-12T02:31:22.727Z,35.33
2022-12-12T02:32:26.907Z,30.33
2022-12-12T02:33:37.808Z,34.88
2022-12-12T02:34:49.297Z,35.67
2022-12-12T02:36:07.132Z,35.67
2022-12-12T02:37:17.253Z,31.10
2022-12-12T02:38:28.797Z,32.42
2022-12-12T02:39:39.569Z,35.45
2022-12-12T02:40:47.895Z,36.47
2022-12-12T02:41:54.118Z,39.50
2022-12-12T02:43:01.604Z,40.85
2022-12-12T02:44:14.136Z,37.90
2022-12-12T02:45:26.563Z,33.47
2022-12-12T02:46:36.753Z,30.75
2022-12-12T02:47:43.811Z,30.05
2022-12-12T02:48:51.988Z,33.67
2022-12-12T02:49:56.890Z,35.08
2022-12-12T02:51:02.836Z,30.25
2022-12-12T02:52:06.139Z,34.30
2022-12-12T02:53:08.940Z,37.42
2022-12-12T02:54:14.583Z,34.50
2022-12-12T02:55:18.936Z,36.13
2022-12-12T02:56:48.279Z,36.92
2022-12-12T02:57:50.935Z,36.70
2022-12-12T02:58:53.911Z,38.75
2022-12-12T02:59:57.785Z,32.42
2022-12-12T03:01:16.693Z,35.53
2022-12-12T03:02:41.723Z,36.22
2022-12-12T03:04:09.902Z,34.90
2022-12-12T03:05:57.594Z,38.50
2022-12-12T03:07:24.161Z,31.38
2022-12-12T03:08:43.512Z,30.00
2022-12-12T03:10:01.304Z,32.92
2022-12-12T03:11:07.073Z,30.23
2022-12-12T03:12:15.283Z,31.13
2022-12-12T03:13:28.829Z,29.52
2022-12-12T03:14:42.044Z,32.03
2022-12-12T03:16:03.063Z,35.38
2022-12-12T03:17:11.404Z,29.65
2022-12-12T03:18:24.957Z,33.17
2022-12-12T03:19:30.801Z,34.55
2022-12-12T03:20:40.549Z,29.52
2022-12-12T03:21:50.271Z,31.85
2022-12-12T03:22:57.183Z,29.80
2022-12-12T03:24:05.236Z,41.67
2022-12-12T03:25:15.410Z,28.27
2022-12-12T03:26:21.538Z,31.30
2022-12-12T03:27:27.175Z,28.48
2022-12-12T03:28:33.154Z,31.52
2022-12-12T03:29:40.194Z,31.85
2022-12-12T03:30:46.563Z,29.98
2022-12-12T03:31:55.232Z,33.30
2022-12-12T03:33:00.526Z,27.42
2022-12-12T03:34:08.413Z,33.92
2022-12-12T03:35:16.364Z,33.95
2022-12-12T03:36:23.486Z,33.50
2022-12-12T03:37:31.802Z,31.70
2022-12-12T03:38:38.141Z,29.75
2022-12-12T03:39:45.777Z,33.03
2022-12-12T03:41:01.238Z,31.65
2022-12-12T03:42:06.095Z,30.58
2022-12-12T03:43:12.324Z,29.80
2022-12-12T03:44:19.352Z,31.52
2022-12-12T03:45:28.276Z,29.38
2022-12-12T03:46:36.213Z,32.42
2022-12-12T03:47:46.806Z,28.13
2022-12-12T03:48:53.299Z,29.83
2022-12-12T03:50:03.428Z,30.90
2022-12-12T03:51:11.578Z,31.17
2022-12-12T03:52:20.621Z,29.35
2022-12-12T03:53:30.128Z,31.80
2022-12-12T03:54:36.224Z,32.38
2022-12-12T03:55:43.442Z,28.33
2022-12-12T03:56:50.482Z,31.17
2022-12-12T03:57:58.175Z,26.85
2022-12-12T03:59:05.549Z,35.00
2022-12-12T04:00:11.061Z,30.67
2022-12-12T04:01:18.219Z,32.63
2022-12-12T04:02:25.836Z,30.65
2022-12-12T04:03:34.183Z,30.20
2022-12-12T04:04:41.374Z,26.83
2022-12-12T04:06:11.495Z,27.35
2022-12-12T04:07:21.501Z,29.52
2022-12-12T04:08:24.602Z,28.48
2022-12-12T04:09:46.069Z,36.53
2022-12-12T04:11:11.817Z,27.65
2022-12-12T04:12:37.240Z,30.92
2022-12-12T04:13:50.089Z,28.70
2022-12-12T04:15:20.665Z,30.23
2022-12-12T04:16:28.771Z,29.02
2022-12-12T04:17:37.672Z,27.95
2022-12-12T04:18:50.059Z,27.23
2022-12-12T04:20:15.371Z,27.15
2022-12-12T04:21:52.090Z,26.38
2022-12-12T04:23:15.872Z,29.25
2022-12-12T04:24:24.677Z,27.05
2022-12-12T04:25:34.548Z,28.27
2022-12-12T04:26:40.629Z,25.38
2022-12-12T04:27:47.624Z,26.10
2022-12-12T04:29:07.683Z,22.35
2022-12-12T04:30:13.055Z,29.35
2022-12-12T04:31:28.078Z,27.33
2022-12-12T04:32:36.455Z,28.27
2022-12-12T04:33:42.853Z,26.40
2022-12-12T04:34:52.144Z,26.95
2022-12-12T04:35:55.464Z,28.63
2022-12-12T04:36:59.345Z,25.42
2022-12-12T04:38:04.604Z,26.30
2022-12-12T04:39:09.013Z,29.73
2022-12-12T04:40:14.095Z,27.38
2022-12-12T04:41:19.051Z,27.17
2022-12-12T04:42:24.430Z,26.25
2022-12-12T04:43:31.456Z,29.25
2022-12-12T04:44:36.916Z,30.60
2022-12-12T04:45:43.132Z,27.73
2022-12-12T04:46:48.340Z,22.58
2022-12-12T04:47:54.172Z,27.90
2022-12-12T04:48:59.041Z,25.45
2022-12-12T04:50:03.097Z,27.75
2022-12-12T04:51:08.066Z,29.85
2022-12-12T04:52:16.352Z,33.85
2022-12-12T04:53:29.455Z,26.83
2022-12-12T04:54:40.168Z,27.40
2022-12-12T04:55:46.032Z,26.55
2022-12-12T04:56:55.321Z,26.15
2022-12-12T04:57:57.440Z,32.05
2022-12-12T04:59:00.243Z,25.63
2022-12-12T05:00:01.860Z,29.63
2022-12-12T05:01:13.526Z,26.55
2022-12-12T05:02:24.612Z,23.77
2022-12-12T05:03:36.545Z,28.23
2022-12-12T05:04:44.793Z,25.50
2022-12-12T05:05:51.674Z,29.15
2022-12-12T05:06:59.313Z,28.38
2022-12-12T05:08:09.604Z,24.58
2022-12-12T05:09:13.667Z,25.15
2022-12-12T05:10:18.408Z,28.33
2022-12-12T05:11:22.025Z,26.50
2022-12-12T05:12:26.089Z,25.60
2022-12-12T05:13:30.650Z,26.35
2022-12-12T05:14:33.367Z,29.52
2022-12-12T05:15:34.990Z,25.15
2022-12-12T05:16:41.189Z,28.52
2022-12-12T05:17:45.851Z,26.35
2022-12-12T05:18:48.994Z,28.63
2022-12-12T05:19:50.575Z,29.10
2022-12-12T05:20:53.688Z,26.48
2022-12-12T05:21:55.276Z,31.35
2022-12-12T05:22:58.208Z,28.20
2022-12-12T05:24:01.240Z,29.27
2022-12-12T05:25:04.472Z,30.00
2022-12-12T05:26:07.405Z,28.33
2022-12-12T05:27:12.379Z,26.15
2022-12-12T05:28:14.071Z,31.35
2022-12-12T05:29:17.097Z,33.05
2022-12-12T05:30:25.477Z,23.42
2022-12-12T05:31:27.609Z,31.60
2022-12-12T05:32:30.138Z,26.73
2022-12-12T05:33:32.534Z,27.27
2022-12-12T05:34:35.135Z,26.45
2022-12-12T05:35:37.799Z,24.48
2022-12-12T05:36:39.333Z,24.83
2022-12-12T05:37:45.417Z,26.33
2022-12-12T05:38:49.975Z,24.10
2022-12-12T05:39:53.891Z,26.23
2022-12-12T05:40:55.447Z,27.60
2022-12-12T05:41:58.131Z,29.73
2022-12-12T05:42:59.653Z,23.70
2022-12-12T05:44:02.270Z,29.30
2022-12-12T05:45:05.175Z,27.65
2022-12-12T05:46:07.749Z,27.52
2022-12-12T05:47:09.895Z,28.85
2022-12-12T05:48:12.467Z,28.40
2022-12-12T05:49:14.993Z,28.08
2022-12-12T05:50:16.630Z,25.75
2022-12-12T05:51:20.159Z,25.13
2022-12-12T05:52:21.906Z,26.98
2022-12-12T05:53:24.379Z,31.20
2022-12-12T05:54:26.867Z,27.83
2022-12-12T05:55:29.716Z,24.63
2022-12-12T05:56:32.274Z,28.55
2022-12-12T05:57:34.098Z,25.38
2022-12-12T05:58:36.647Z,25.45
2022-12-12T05:59:38.191Z,26.95
2022-12-12T06:00:40.713Z,26.17
2022-12-12T06:01:42.763Z,28.02
2022-12-12T06:02:45.546Z,25.85
2022-12-12T06:03:47.630Z,24.70
2022-12-12T06:04:50.289Z,28.17
2022-12-12T06:05:52.762Z,25.95
2022-12-12T06:06:54.392Z,28.02
2022-12-12T06:07:57.157Z,24.13
2022-12-12T06:08:58.780Z,29.63
2022-12-12T06:10:01.337Z,30.85
2022-12-12T06:11:07.938Z,26.45
2022-12-12T06:12:09.503Z,26.15
2022-12-12T06:13:12.193Z,30.98
2022-12-12T06:14:14.070Z,27.38
2022-12-12T06:15:16.977Z,28.48
2022-12-12T06:16:19.353Z,32.50
2022-12-12T06:17:21.926Z,33.15
2022-12-12T06:18:23.423Z,25.00
2022-12-12T06:19:31.876Z,27.38
2022-12-12T06:20:33.838Z,28.13
2022-12-12T06:21:36.380Z,31.48
2022-12-12T06:22:37.932Z,32.85
2022-12-12T06:23:42.067Z,33.53
2022-12-12T06:24:43.782Z,26.80
2022-12-12T06:25:50.880Z,31.70
2022-12-12T06:26:53.887Z,28.55
2022-12-12T06:27:56.422Z,29.95
2022-12-12T06:28:59.088Z,28.02
2022-12-12T06:30:01.594Z,26.60
2022-12-12T06:31:09.689Z,26.70
2022-12-12T06:32:13.031Z,32.78
2022-12-12T06:33:15.614Z,26.08
2022-12-12T06:34:18.210Z,26.38
2022-12-12T06:35:19.959Z,29.50
2022-12-12T06:36:24.763Z,27.80
2022-12-12T06:37:26.342Z,25.15
2022-12-12T06:38:29.886Z,31.30
2022-12-12T06:39:31.529Z,24.50
2022-12-12T06:40:34.365Z,27.67
2022-12-12T06:41:35.927Z,26.23
2022-12-12T06:42:46.252Z,27.40
2022-12-12T06:43:51.636Z,27.02
2022-12-12T06:44:54.428Z,24.60
2022-12-12T06:46:02.550Z,25.70
2022-12-12T06:47:04.219Z,28.42
2022-12-12T06:48:06.979Z,29.60
2022-12-12T06:49:10.503Z,30.00
2022-12-12T06:50:12.543Z,30.92
2022-12-12T06:51:18.203Z,26.13
2022-12-12T06:52:20.395Z,21.67
2022-12-12T06:53:22.938Z,27.38
2022-12-12T06:54:26.236Z,20.77
2022-12-12T06:55:27.839Z,21.70
2022-12-12T06:56:30.409Z,27.35
2022-12-12T06:57:32.948Z,26.05
2022-12-12T06:58:36.714Z,27.50
2022-12-12T06:59:39.456Z,30.15
2022-12-12T07:00:41.340Z,25.00
2022-12-12T07:01:44.051Z,26.17
2022-12-12T07:02:46.974Z,24.58
2022-12-12T07:03:49.633Z,23.05
2022-12-12T07:04:52.135Z,23.77
2022-12-12T07:05:53.785Z,28.33
2022-12-12T07:06:56.579Z,25.17
2022-12-12T07:07:59.149Z,24.50
2022-12-12T07:09:02.969Z,32.42
2022-12-12T07:10:12.261Z,27.08
2022-12-12T07:11:16.110Z,25.58
2022-12-12T07:12:18.631Z,27.98
2022-12-12T07:13:20.456Z,19.10
2022-12-12T07:14:24.396Z,24.15
2022-12-12T07:15:26.052Z,23.08
2022-12-12T07:16:28.767Z,18.42
2022-12-12T07:17:30.263Z,30.83
2022-12-12T07:18:32.872Z,30.90
2022-12-12T07:19:34.376Z,23.42
2022-12-12T07:20:39.796Z,21.35
2022-12-12T07:21:42.324Z,23.63
2022-12-12T07:22:43.802Z,21.90
2022-12-12T07:23:47.234Z,23.67
2022-12-12T07:24:51.259Z,21.27
2022-12-12T07:25:52.789Z,25.05
2022-12-12T07:26:55.298Z,28.98
2022-12-12T07:27:57.086Z,20.02
2022-12-12T07:28:59.622Z,20.92
2022-12-12T07:30:03.716Z,23.92
2022-12-12T07:31:07.275Z,20.10
2022-12-12T08:12:09.165Z,25.77
2022-12-12T08:13:10.906Z,22.65
2022-12-12T08:14:13.560Z,22.88
2022-12-12T08:15:16.505Z,27.55
2022-12-12T08:16:21.605Z,24.15
2022-12-12T08:17:24.232Z,21.58
2022-12-12T08:18:26.754Z,21.40
2022-12-12T08:19:29.292Z,24.80
2022-12-12T08:20:31.914Z,26.02
2022-12-12T08:21:34.914Z,24.08
2022-12-12T08:22:37.462Z,27.42
2022-12-12T08:23:40.133Z,21.42
2022-12-12T08:24:43.211Z,26.27
2022-12-12T08:25:45.842Z,24.95
2022-12-12T08:26:51.120Z,21.80
2022-12-12T08:27:54.167Z,24.30
2022-12-12T08:29:00.508Z,28.23
2022-12-12T08:30:03.126Z,21.90
2022-12-12T08:31:06.049Z,23.65
2022-12-12T08:32:08.654Z,22.25
2022-12-12T08:33:11.175Z,20.77
2022-12-12T08:34:13.873Z,25.70
2022-12-12T08:35:16.698Z,23.05
2022-12-12T08:36:21.860Z,30.58
2022-12-12T08:37:24.344Z,28.27
2022-12-12T08:38:27.052Z,20.40
2022-12-12T08:39:28.586Z,20.45
2022-12-12T08:40:31.160Z,21.20
2022-12-12T08:41:34.549Z,23.88
2022-12-12T08:42:37.080Z,20.55
2022-12-12T08:43:41.242Z,21.23
2022-12-12T08:44:44.034Z,25.88
2022-12-12T08:45:47.055Z,27.73
2022-12-12T08:46:58.867Z,22.05
2022-12-12T08:48:01.619Z,25.65
2022-12-12T08:49:04.518Z,20.65
2022-12-12T08:50:07.980Z,21.83
2022-12-12T08:51:10.481Z,22.67
2022-12-12T08:52:13.002Z,18.98
2022-12-12T08:53:15.466Z,23.75
2022-12-12T08:54:18.125Z,19.92
2022-12-12T08:55:20.872Z,21.63
2022-12-12T08:56:24.984Z,19.67
2022-12-12T08:57:26.574Z,19.00
2022-12-12T08:58:29.161Z,22.20
2022-12-12T08:59:33.257Z,19.70
2022-12-12T09:00:35.993Z,19.38
2022-12-12T09:01:38.948Z,19.75
2022-12-12T09:02:42.725Z,20.60
2022-12-12T09:03:45.437Z,21.13
2022-12-12T09:04:48.013Z,19.15
2022-12-12T09:05:50.516Z,18.75
2022-12-12T09:06:53.350Z,18.83
2022-12-12T09:07:56.318Z,19.13
2022-12-12T09:08:57.955Z,18.88
2022-12-12T09:10:00.463Z,17.70
2022-12-12T09:11:04.769Z,20.35
2022-12-12T09:12:07.915Z,20.15
2022-12-12T09:13:11.279Z,17.90
2022-12-12T09:14:13.783Z,19.65
2022-12-12T09:15:18.233Z,21.67
2022-12-12T09:16:21.709Z,17.42
2022-12-12T09:17:24.266Z,19.88
2022-12-12T09:18:26.590Z,19.80
2022-12-12T09:19:29.126Z,19.73
2022-12-12T09:20:31.687Z,24.98
2022-12-12T09:21:34.698Z,17.02
2022-12-12T09:22:37.297Z,27.83
2022-12-12T09:23:39.827Z,19.25
2022-12-12T09:24:42.368Z,21.92
2022-12-12T09:25:45.191Z,18.35
2022-12-12T09:26:48.196Z,25.13
2022-12-12T09:27:50.795Z,27.95
2022-12-12T09:28:52.313Z,22.95
2022-12-12T09:29:54.816Z,22.63
2022-12-12T09:30:58.777Z,19.23
2022-12-12T09:32:06.266Z,19.05
2022-12-12T09:33:09.217Z,19.38
2022-12-12T09:34:11.777Z,23.90
2022-12-12T09:35:14.598Z,22.17
2022-12-12T09:36:16.991Z,18.92
2022-12-12T09:37:19.629Z,18.42
2022-12-12T09:38:21.565Z,18.92
2022-12-12T09:39:24.048Z,21.70
2022-12-12T09:40:31.031Z,19.00
2022-12-12T09:41:33.648Z,21.33
2022-12-12T09:42:38.462Z,15.40
2022-12-12T09:43:48.097Z,19.15
2022-12-12T09:44:55.167Z,17.17
2022-12-12T09:46:01.006Z,19.50
2022-12-12T09:47:08.332Z,17.88
2022-12-12T09:48:19.642Z,19.05
2022-12-12T09:49:30.245Z,22.48
2022-12-12T09:50:36.524Z,21.63
2022-12-12T09:51:38.403Z,25.42
2022-12-12T09:52:42.559Z,18.50
2022-12-12T09:53:47.191Z,23.27
2022-12-12T09:54:49.823Z,19.23
2022-12-12T09:56:01.123Z,19.15
2022-12-12T09:57:15.852Z,23.48
2022-12-12T09:58:24.842Z,19.85
2022-12-12T09:59:35.158Z,23.38
2022-12-12T10:00:44.900Z,21.85
2022-12-12T10:01:56.779Z,17.40
2022-12-12T10:03:26.039Z,21.38
2022-12-12T10:04:39.295Z,20.55
2022-12-12T10:05:45.987Z,14.43
2022-12-12T10:06:57.126Z,19.00
2022-12-12T10:08:09.656Z,18.92
2022-12-12T10:09:31.361Z,19.75
2022-12-12T10:10:37.371Z,20.98
2022-12-12T10:11:50.485Z,24.98
2022-12-12T10:12:54.864Z,22.58
2022-12-12T10:14:00.045Z,21.52
2022-12-12T10:15:06.377Z,23.38
2022-12-12T10:16:13.349Z,21.40
2022-12-12T10:17:23.828Z,27.88
2022-12-12T10:18:31.305Z,20.75
2022-12-12T10:19:39.589Z,21.20
2022-12-12T10:20:48.320Z,22.02
2022-12-12T10:21:53.100Z,22.05
2022-12-12T10:23:01.776Z,19.73
2022-12-12T10:24:18.450Z,20.80
2022-12-12T10:25:24.423Z,19.75
2022-12-12T10:26:30.403Z,20.38
2022-12-12T10:27:32.917Z,23.15
2022-12-12T10:28:36.281Z,20.17
2022-12-12T10:29:42.470Z,20.50
2022-12-12T10:31:02.811Z,18.77
2022-12-12T10:32:15.252Z,22.33
2022-12-12T10:33:31.882Z,24.48
2022-12-12T10:34:51.287Z,25.98
2022-12-12T10:36:02.714Z,20.65
2022-12-12T10:37:23.499Z,20.40
2022-12-12T10:38:41.070Z,23.15
2022-12-12T10:39:55.849Z,21.50
2022-12-12T10:41:05.646Z,26.30
2022-12-12T10:42:19.126Z,22.10
2022-12-12T10:43:26.788Z,21.05
2022-12-12T10:44:55.855Z,22.85
2022-12-12T10:46:26.089Z,23.30
2022-12-12T10:47:29.660Z,20.05
2022-12-12T10:48:34.590Z,20.83
2022-12-12T10:49:37.857Z,22.08
2022-12-12T10:50:45.564Z,18.80
2022-12-12T10:51:50.289Z,25.80
2022-12-12T10:52:53.033Z,19.17
2022-12-12T10:53:56.818Z,22.20
2022-12-12T10:55:00.792Z,21.92
2022-12-12T10:56:06.569Z,20.40
2022-12-12T10:57:16.645Z,23.17
2022-12-12T10:58:25.654Z,22.35
2022-12-12T10:59:27.178Z,21.90
2022-12-12T11:00:34.484Z,23.17
2022-12-12T11:03:13.617Z,24.00
2022-12-12T11:04:17.793Z,19.58
2022-12-12T11:05:22.732Z,32.92
2022-12-12T11:06:31.867Z,25.50
2022-12-12T11:07:37.780Z,22.20
2022-12-12T11:08:52.399Z,22.25
2022-12-12T11:09:58.974Z,24.80
2022-12-12T11:11:08.322Z,20.48
2022-12-12T11:12:14.999Z,22.27
2022-12-12T11:13:16.857Z,18.67
2022-12-12T11:14:28.053Z,25.48
2022-12-12T11:15:39.350Z,25.42
2022-12-12T11:16:44.119Z,25.25
2022-12-12T11:17:46.762Z,30.83
2022-12-12T11:19:17.972Z,22.27
2022-12-12T11:20:20.857Z,24.33
2022-12-12T11:21:25.244Z,22.80
2022-12-12T11:22:29.007Z,19.10
2022-12-12T11:23:33.600Z,21.45
2022-12-12T11:24:39.831Z,21.75
2022-12-12T11:25:42.833Z,22.40
2022-12-12T11:26:49.974Z,26.75
2022-12-12T11:27:54.920Z,21.85
2022-12-12T11:29:01.094Z,20.23
2022-12-12T11:30:08.884Z,23.48
2022-12-12T11:31:16.585Z,20.95
2022-12-12T11:32:23.542Z,25.33
2022-12-12T11:33:33.123Z,23.70
2022-12-12T11:34:39.110Z,19.10
2022-12-12T11:35:47.668Z,19.55
2022-12-12T11:36:50.679Z,25.88
2022-12-12T11:38:00.189Z,18.98
2022-12-12T11:39:14.140Z,25.00
2022-12-12T11:40:24.722Z,22.48
2022-12-12T11:41:27.357Z,17.35
2022-12-12T11:42:32.054Z,24.23
2022-12-12T11:43:37.024Z,20.50
2022-12-12T11:44:40.418Z,23.08
2022-12-12T11:45:44.460Z,19.85
2022-12-12T11:46:46.965Z,21.13
2022-12-12T11:47:50.216Z,21.70
2022-12-12T11:49:01.809Z,19.60
2022-12-12T11:50:22.693Z,21.23
2022-12-12T11:54:39.591Z,22.88
2022-12-12T11:55:55.055Z,25.95
2022-12-12T11:57:02.054Z,21.75
2022-12-12T11:58:16.524Z,22.33
2022-12-12T11:59:42.198Z,20.27
2022-12-12T12:00:53.116Z,26.23
2022-12-12T12:02:08.486Z,22.83
2022-12-12T12:03:39.035Z,25.00
2022-12-12T12:07:46.843Z,23.20
2022-12-12T12:09:11.888Z,17.27
2022-12-12T12:10:24.409Z,33.97
2022-12-12T12:11:39.610Z,18.33
2022-12-12T12:12:53.941Z,19.50
2022-12-12T12:14:20.754Z,25.67
2022-12-12T12:15:36.754Z,20.50
2022-12-12T12:16:52.671Z,22.38
2022-12-12T12:18:07.304Z,18.58
2022-12-12T12:19:17.721Z,20.50
2022-12-12T12:20:27.501Z,34.13
2022-12-12T12:21:40.079Z,24.10
2022-12-12T12:22:58.528Z,22.58
2022-12-12T12:24:18.973Z,23.92
2022-12-12T12:25:49.164Z,21.17
2022-12-12T12:27:00.829Z,19.20
2022-12-12T12:28:26.070Z,19.77
2022-12-12T12:29:45.156Z,20.65
2022-12-12T12:35:30.671Z,17.23
2022-12-12T12:36:47.141Z,21.85
2022-12-12T12:41:06.626Z,23.33
2022-12-12T12:42:28.093Z,19.92
2022-12-12T12:43:46.423Z,21.73
2022-12-12T12:44:56.152Z,16.02
2022-12-12T12:46:13.727Z,18.45
2022-12-12T12:47:27.523Z,24.23
2022-12-12T12:48:33.977Z,19.70
2022-12-12T12:49:44.725Z,20.90
2022-12-12T12:50:52.874Z,22.80
2022-12-12T12:52:00.340Z,22.85
2022-12-12T12:53:08.851Z,23.88
2022-12-12T12:54:19.316Z,21.70
2022-12-12T12:55:25.523Z,18.92
2022-12-12T12:56:31.071Z,16.85
2022-12-12T12:57:38.927Z,17.33
2022-12-12T12:58:46.012Z,21.40
2022-12-12T12:59:52.937Z,19.08
2022-12-12T13:01:01.583Z,23.35
2022-12-12T13:02:26.709Z,19.23
2022-12-12T13:03:45.544Z,19.13
2022-12-12T13:04:54.681Z,23.52
2022-12-12T13:06:00.508Z,23.15
2022-12-12T13:07:10.195Z,19.83
2022-12-12T13:08:19.581Z,18.42
2022-12-12T13:09:35.237Z,20.83
2022-12-12T13:15:22.778Z,27.98
2022-12-12T13:16:32.490Z,33.47
2022-12-12T13:17:47.717Z,41.22
2022-12-12T13:19:03.672Z,23.63
2022-12-12T13:24:45.831Z,17.65
2022-12-12T13:25:57.578Z,24.05
2022-12-12T13:27:05.570Z,17.15
2022-12-12T13:28:14.038Z,20.55
2022-12-12T13:29:34.861Z,18.60
2022-12-12T13:35:15.252Z,21.45
2022-12-12T13:36:27.585Z,18.27
2022-12-12T13:37:36.727Z,17.08
2022-12-12T13:38:40.906Z,20.20
2022-12-12T13:39:43.695Z,20.92
2022-12-12T13:40:55.127Z,18.30
2022-12-12T13:46:38.867Z,26.77
2022-12-12T13:48:02.214Z,21.27
2022-12-12T13:49:16.991Z,22.30
2022-12-12T13:50:24.317Z,19.50
2022-12-12T13:51:48.632Z,24.83
2022-12-12T13:53:20.419Z,17.30
2022-12-12T13:54:45.892Z,21.65
2022-12-12T13:55:48.489Z,23.75
2022-12-12T13:57:09.929Z,19.95
2022-12-12T13:58:21.500Z,17.73
2022-12-12T13:59:33.180Z,17.77
2022-12-12T14:00:36.496Z,16.80
2022-12-12T14:01:40.700Z,18.08
2022-12-12T14:02:45.913Z,21.55
2022-12-12T14:03:48.843Z,17.67
2022-12-12T14:05:07.834Z,22.17
2022-12-12T14:06:13.269Z,21.90
2022-12-12T14:07:18.654Z,21.45
2022-12-12T14:08:26.078Z,17.73
2022-12-12T14:09:47.157Z,24.23
2022-12-12T14:11:01.127Z,17.48
2022-12-12T14:12:05.297Z,15.50
2022-12-12T14:13:18.991Z,18.98
2022-12-12T14:14:26.535Z,25.48
2022-12-12T14:15:31.332Z,17.77
2022-12-12T14:16:36.410Z,19.15
2022-12-12T14:17:54.667Z,22.77
2022-12-12T14:19:05.425Z,18.30
2022-12-12T14:20:09.232Z,17.13
2022-12-12T14:21:15.476Z,18.80
2022-12-12T14:22:28.044Z,14.30
2022-12-12T14:23:32.285Z,20.70
2022-12-12T14:24:59.261Z,23.58
2022-12-12T14:26:03.061Z,20.38
2022-12-12T14:27:06.180Z,17.60
2022-12-12T14:28:18.845Z,15.93
2022-12-12T14:29:26.840Z,17.00
2022-12-12T14:30:41.005Z,17.13
2022-12-12T14:31:47.891Z,19.55
2022-12-12T14:32:54.587Z,19.52
2022-12-12T14:34:20.470Z,19.45
2022-12-12T14:35:42.353Z,19.02
2022-12-12T14:37:29.265Z,22.65
2022-12-12T14:38:38.248Z,23.50
2022-12-12T14:40:01.633Z,21.95
2022-12-12T14:41:10.577Z,21.40
2022-12-12T14:42:23.805Z,23.60
2022-12-12T14:43:29.835Z,22.08
2022-12-12T14:44:37.261Z,22.42
2022-12-12T14:45:52.607Z,25.05
2022-12-12T14:46:54.443Z,23.55
2022-12-12T14:48:18.258Z,26.40
2022-12-12T14:49:27.058Z,21.70
2022-12-12T14:50:29.281Z,18.85
2022-12-12T14:51:35.158Z,21.45
2022-12-12T14:52:39.068Z,16.13
2022-12-12T14:53:52.355Z,22.27
2022-12-12T14:55:05.096Z,26.35
2022-12-12T14:56:19.190Z,39.95
2022-12-12T14:57:24.309Z,24.27
2022-12-12T14:58:28.956Z,17.20
2022-12-12T14:59:34.129Z,18.55
2022-12-12T15:00:46.526Z,21.05
2022-12-12T15:01:50.829Z,28.67
2022-12-12T15:02:52.966Z,23.45
2022-12-12T15:03:56.056Z,28.08
2022-12-12T15:05:04.740Z,19.83
2022-12-12T15:06:28.473Z,29.35
2022-12-12T15:07:32.089Z,24.63
2022-12-12T15:08:35.167Z,26.55
2022-12-12T15:09:39.616Z,30.98
2022-12-12T15:10:57.641Z,21.02
2022-12-12T15:12:14.349Z,22.13
2022-12-12T15:13:16.864Z,20.42
2022-12-12T15:14:22.968Z,19.85
2022-12-12T15:15:27.615Z,27.08
2022-12-12T15:16:34.632Z,25.55
2022-12-12T15:17:44.906Z,34.55
2022-12-12T15:18:47.880Z,22.08
2022-12-12T15:19:52.029Z,25.38
2022-12-12T15:20:58.122Z,26.27
2022-12-12T15:22:00.788Z,21.55
2022-12-12T15:23:05.201Z,24.65
2022-12-12T15:24:17.519Z,20.27
2022-12-12T15:25:22.487Z,24.98
2022-12-12T15:26:27.768Z,20.88
2022-12-12T15:27:34.076Z,20.70
2022-12-12T15:28:35.610Z,23.60
2022-12-12T15:29:38.749Z,21.90
2022-12-12T15:30:43.761Z,18.05
2022-12-12T15:31:47.096Z,22.77
2022-12-12T15:32:50.123Z,20.70
2022-12-12T15:33:51.778Z,17.83
2022-12-12T15:35:20.458Z,20.52
2022-12-12T15:36:27.623Z,22.20
2022-12-12T15:37:32.569Z,21.98
2022-12-12T15:38:35.357Z,19.75
2022-12-12T15:39:38.834Z,21.85
2022-12-12T15:40:44.167Z,23.48
2022-12-12T15:41:46.147Z,21.30